createdAt,value
2023-11-15T00:04:04.690Z,3.20
2023-11-15T00:08:13.612Z,3.57
2023-11-15T00:12:26.466Z,3.17
2023-11-15T00:16:35.644Z,3.23
2023-11-15T00:20:45.593Z,4.63
2023-11-15T00:24:55.505Z,2.93
2023-11-15T00:29:06.275Z,3.80
2023-11-15T00:33:15.487Z,3.60
2023-11-15T00:37:24.482Z,4.27
2023-11-15T00:41:33.854Z,3.87
2023-11-15T00:45:45.166Z,3.20
2023-11-15T00:49:54.305Z,3.93
2023-11-15T00:54:03.236Z,3.50
2023-11-15T00:58:12.253Z,4.10
2023-11-15T01:02:23.331Z,3.77
2023-11-15T01:06:32.576Z,4.03
2023-11-15T01:10:41.580Z,4.10
2023-11-15T01:14:50.833Z,4.10
2023-11-15T01:19:03.953Z,3.60
2023-11-15T01:23:13.313Z,3.70
2023-11-15T01:27:22.224Z,4.37
2023-11-15T01:31:31.315Z,3.73
2023-11-15T01:35:41.889Z,4.77
2023-11-15T01:39:52.285Z,4.10
2023-11-15T01:44:01.256Z,3.83
2023-11-15T01:48:10.592Z,3.60
2023-11-15T01:52:21.332Z,4.43
2023-11-15T01:56:30.426Z,4.00
2023-11-15T02:00:39.722Z,4.00
2023-11-15T02:04:48.725Z,3.60
2023-11-15T02:09:00.090Z,3.33
2023-11-15T02:13:23.142Z,3.90
2023-11-15T02:17:32.451Z,3.30
2023-11-15T02:21:41.518Z,4.10
2023-11-15T02:25:53.009Z,3.83
2023-11-15T02:30:02.133Z,4.37
2023-11-15T02:34:11.098Z,3.57
2023-11-15T02:38:20.285Z,3.73
2023-11-15T02:42:30.703Z,4.40
2023-11-15T02:46:39.785Z,4.27
2023-11-15T02:50:48.983Z,3.50
2023-11-15T02:54:59.990Z,3.87
2023-11-15T02:59:10.470Z,3.50
2023-11-15T03:03:20.979Z,3.80
2023-11-15T03:07:30.077Z,3.63
2023-11-15T03:11:39.390Z,4.83
2023-11-15T03:15:50.120Z,4.03
2023-11-15T03:19:59.056Z,4.10
2023-11-15T03:24:09.016Z,4.10
2023-11-15T03:28:17.960Z,2.93
2023-11-15T03:32:30.383Z,4.67
2023-11-15T03:36:39.994Z,4.00
2023-11-15T03:40:49.293Z,3.87
2023-11-15T03:44:59.586Z,3.77
2023-11-15T03:49:10.196Z,3.90
2023-11-15T03:53:19.151Z,3.43
2023-11-15T03:57:29.303Z,4.00
2023-11-15T04:01:48.587Z,4.43
2023-11-15T04:06:04.461Z,3.83
2023-11-15T04:10:14.020Z,3.90
2023-11-15T04:14:26.204Z,2.63
2023-11-15T04:18:35.237Z,3.13
2023-11-15T04:22:45.795Z,3.60
2023-11-15T04:26:54.796Z,3.17
2023-11-15T04:31:04.278Z,3.87
2023-11-15T04:35:13.220Z,3.83
2023-11-15T04:39:26.151Z,4.27
2023-11-15T04:43:35.326Z,3.80
2023-11-15T04:47:44.484Z,3.90
2023-11-15T04:51:53.526Z,3.57
2023-11-15T04:56:04.683Z,3.80
2023-11-15T05:00:14.952Z,3.10
2023-11-15T08:28:13.772Z,3.33
2023-11-15T08:32:22.634Z,3.07
2023-11-15T08:36:31.849Z,2.60
2023-11-15T08:40:41.101Z,3.60
2023-11-15T08:44:52.540Z,2.90
2023-11-15T08:49:02.172Z,3.63
2023-11-15T08:53:12.526Z,3.37
2023-11-15T08:57:22.073Z,3.57
2023-11-15T09:01:32.544Z,2.40
2023-11-15T09:05:45.521Z,3.00
2023-11-15T09:09:55.930Z,3.40
2023-11-15T09:14:09.570Z,3.00
2023-11-15T09:18:23.459Z,2.20
2023-11-15T09:44:56.771Z,3.10
2023-11-15T09:49:08.410Z,3.03
2023-11-15T09:53:18.283Z,3.43
2023-11-15T09:57:27.697Z,3.67
2023-11-15T10:01:44.568Z,3.17
2023-11-15T10:06:01.202Z,3.30
2023-11-15T10:10:19.687Z,3.37
2023-11-15T10:14:30.844Z,2.87
2023-11-15T10:18:41.468Z,3.33
2023-11-15T10:22:52.326Z,3.10
2023-11-15T10:27:07.265Z,2.63
2023-11-15T10:31:20.065Z,2.30
2023-11-15T10:35:30.613Z,3.27
2023-11-15T10:39:45.910Z,2.87
2023-11-15T10:43:56.081Z,3.30
2023-11-15T10:48:07.625Z,2.83
2023-11-15T10:52:19.272Z,3.17
2023-11-15T10:56:28.508Z,2.97
2023-11-15T11:04:50.869Z,2.77
2023-11-15T11:09:13.276Z,2.80
2023-11-15T11:13:23.490Z,2.97
2023-11-15T11:17:39.901Z,3.10
2023-11-15T11:22:11.489Z,2.60
2023-11-15T11:26:38.561Z,2.60
2023-11-15T11:31:18.506Z,2.63
2023-11-15T11:35:37.942Z,2.17
2023-11-15T11:39:57.908Z,2.23
2023-11-15T11:44:10.526Z,2.57
2023-11-15T11:48:23.318Z,2.00
2023-11-15T11:52:32.372Z,1.80
2023-11-15T11:56:49.046Z,2.23
2023-11-15T12:01:06.883Z,2.20
2023-11-15T12:05:17.267Z,2.10
2023-11-15T12:09:26.189Z,2.30
2023-11-15T12:13:49.650Z,2.73
2023-11-15T12:18:01.774Z,1.90
2023-11-15T12:22:10.713Z,1.57
2023-11-15T12:26:19.646Z,1.83
2023-11-15T12:30:29.794Z,1.70
2023-11-15T12:34:40.569Z,2.30
2023-11-15T12:38:56.644Z,2.30
2023-11-15T12:43:20.998Z,2.50
2023-11-15T12:47:31.888Z,2.20
2023-11-15T12:51:48.727Z,2.60
2023-11-15T12:55:57.712Z,2.33
2023-11-15T13:00:34.512Z,2.00
2023-11-15T13:04:47.799Z,2.10
2023-11-15T13:09:00.718Z,1.83
2023-11-15T13:13:12.698Z,2.00
2023-11-15T13:17:21.874Z,2.30
2023-11-15T13:21:31.284Z,1.77
2023-11-15T13:25:41.910Z,2.20
2023-11-15T13:29:52.131Z,2.60
2023-11-15T13:34:01.396Z,1.87
2023-11-15T13:38:13.282Z,2.53
2023-11-15T13:42:23.889Z,2.30
2023-11-15T13:46:33.542Z,1.90
2023-11-15T13:50:42.604Z,2.80
2023-11-15T13:54:51.568Z,2.43
2023-11-15T13:59:01.961Z,2.20
2023-11-15T14:03:14.905Z,2.23
2023-11-15T14:07:23.877Z,2.70
2023-11-15T14:11:35.269Z,2.47
2023-11-15T14:15:46.848Z,3.23
2023-11-15T14:19:57.015Z,2.30
2023-11-15T14:24:06.839Z,3.03
2023-11-15T14:28:16.990Z,2.47
2023-11-15T14:32:27.631Z,2.40
2023-11-15T14:36:38.685Z,2.20
2023-11-15T14:40:47.927Z,2.60
2023-11-15T14:44:59.140Z,2.23
2023-11-15T14:49:09.702Z,1.90
2023-11-15T14:53:31.443Z,3.00
2023-11-15T14:57:40.692Z,2.00
2023-11-15T15:01:49.775Z,2.40
2023-11-15T15:06:00.447Z,2.90
2023-11-15T15:10:11.903Z,2.90
2023-11-15T15:14:21.027Z,2.43
2023-11-15T15:18:34.597Z,2.63
2023-11-15T15:22:45.704Z,2.50
2023-11-15T15:26:55.111Z,2.03
2023-11-15T15:31:05.421Z,2.57
2023-11-15T15:35:15.089Z,2.50
2023-11-15T15:52:47.873Z,3.07
2023-11-15T16:47:32.615Z,5.47
2023-11-15T16:51:41.791Z,3.00
2023-11-15T17:00:06.908Z,3.10
2023-11-15T17:08:57.365Z,2.90
2023-11-15T17:13:19.682Z,2.27
2023-11-15T17:17:45.271Z,2.27
2023-11-15T17:22:07.007Z,2.83
2023-11-15T17:26:32.292Z,2.33
2023-11-15T17:30:56.813Z,2.47
2023-11-15T17:35:16.826Z,2.37
2023-11-15T17:39:40.671Z,1.60
2023-11-15T17:44:08.171Z,3.00
2023-11-15T17:48:23.644Z,3.13
2023-11-15T17:52:37.874Z,3.30
2023-11-15T17:56:50.712Z,2.80
2023-11-15T18:09:58.807Z,3.00
2023-11-15T18:14:15.189Z,2.77
2023-11-15T18:18:24.576Z,2.93
2023-11-15T18:22:43.284Z,2.20
2023-11-15T18:31:51.175Z,3.60
2023-11-15T18:36:04.230Z,4.00
2023-11-15T18:40:21.710Z,3.50
2023-11-15T18:54:16.661Z,4.13
2023-11-15T19:18:41.587Z,3.60
2023-11-15T19:32:53.618Z,4.37
2023-11-15T20:22:13.114Z,3.00
2023-11-15T20:31:15.626Z,2.87
2023-11-15T20:35:25.260Z,2.40
2023-11-15T20:39:48.953Z,3.37
2023-11-15T20:43:59.646Z,2.53
2023-11-15T20:48:37.687Z,2.90
2023-11-15T20:52:52.786Z,3.10
2023-11-15T20:57:07.322Z,2.90
2023-11-15T21:01:18.285Z,3.17
2023-11-15T21:05:29.031Z,2.40
2023-11-15T21:09:42.285Z,2.40
2023-11-15T21:13:52.907Z,2.03
2023-11-15T21:18:04.774Z,2.57
2023-11-15T21:22:15.186Z,2.30
2023-11-15T21:26:24.604Z,1.77
2023-11-15T21:30:39.113Z,2.30
2023-11-15T21:34:51.374Z,2.10
2023-11-15T21:39:00.823Z,2.17
2023-11-15T21:47:44.642Z,2.37
2023-11-15T21:56:38.054Z,2.47
2023-11-15T22:00:50.327Z,1.87
2023-11-15T22:05:10.937Z,2.40
2023-11-15T22:09:21.605Z,2.63
2023-11-15T22:13:46.497Z,2.20
2023-11-15T22:32:54.200Z,2.67
2023-11-15T22:37:19.111Z,2.13
2023-11-15T22:41:56.042Z,2.10
2023-11-15T22:46:34.881Z,2.40
2023-11-15T22:50:47.503Z,1.83
2023-11-15T22:59:30.853Z,2.03
2023-11-15T23:03:46.156Z,2.37
2023-11-15T23:07:56.887Z,2.03
2023-11-15T23:12:08.561Z,2.10
2023-11-15T23:16:18.424Z,3.13
2023-11-15T23:20:34.428Z,2.90
2023-11-15T23:24:47.627Z,2.07
2023-11-15T23:28:57.589Z,2.60
2023-11-15T23:33:27.756Z,2.30
2023-11-15T23:37:39.086Z,2.70
2023-11-15T23:41:50.749Z,2.67
2023-11-15T23:46:06.400Z,1.73
2023-11-15T23:50:15.872Z,2.67
2023-11-15T23:54:32.404Z,2.70
2023-11-15T23:58:41.827Z,2.73
